首页
METAR-TAF:

METAR-TAF

机场 :

Fort Bragg, 北卡罗来纳州, 美国

纬度: 35-08N, 经度: 078-56W, 海拔: 74米

当前天气观测

该预报发布于22分钟前的03:56 UTC
风速10节,风向北转西北
温度 16°C
湿度 51%
气压 1015 hPa
能見度: 16.1公里
天空无云

METAR: KFBG 170356Z AUTO 34010KT 10SM CLR 16/06 A2998 RMK AO2 SLP153 T01590061 $

时间: 00:18 (04:18 UTC)

预报

该预报发布于1小时和18分钟前的03:00 UTC
预报有效从17日的 03点(UTC)到 18日的 07点(UTC)
风速9节,风向北转西北
能见度10公里或以上
散云层高于5000英尺
成为
从 17日的 14点(UTC)到 17日的 15点(UTC)
风速15节,风向北转西北,有时为20节阵风
能见度10公里或以上
天空无云
成为
从 17日的 17点(UTC)到 17日的 18点(UTC)
风速15节,风向北转西北
能见度10公里或以上
天空无云
成为
从 18日的 03点(UTC)到 18日的 04点(UTC)
风速6节,风向多变
能见度10公里或以上
天空无云

TAF: KFBG 170300Z 1703/1807 33009KT 9999 SCT050 QNH2986INS BECMG 1714/1715 34015G20KT 9999 SKC QNH3008INS BECMG 1717/1718 33015KT 9999 SKC QNH3001INS BECMG 1803/1804 VRB06KT 9999 SKC QNH3010INS TX22/1720Z TN10/1707Z

超过4000个机场的气象观测和天气预报(METAR&TAF报告)。

可查询的气象台以黄色和红色小点在地图上表示。

将鼠标移到小点上方,可查看气象台名称。

然后点击查看天气观测和预报。

如需切换地图:点击带黑十字的绿色按钮放大地图;点击带横线的绿色按钮缩小地图;或者点击绿色箭头查看邻近地区的地图。


METAR-TAF: